createdAt,value
2022-11-24T00:02:46.085Z,6.05
2022-11-24T00:06:29.617Z,9.73
2022-11-24T00:10:11.650Z,9.77
2022-11-24T00:13:53.834Z,4.38
2022-11-24T00:17:35.843Z,6.32
2022-11-24T00:21:18.993Z,4.57
2022-11-24T00:25:01.009Z,8.30
2022-11-24T00:28:44.004Z,8.15
2022-11-24T00:32:29.782Z,7.53
2022-11-24T00:36:11.923Z,6.72
2022-11-24T00:39:53.906Z,6.63
2022-11-24T00:43:35.779Z,9.10
2022-11-24T00:47:17.817Z,9.77
2022-11-24T00:51:08.811Z,8.13
2022-11-24T00:54:50.751Z,4.75
2022-11-24T00:58:33.504Z,6.93
2022-11-24T01:02:15.619Z,9.82
2022-11-24T01:06:02.515Z,9.57
2022-11-24T01:09:45.746Z,8.20
2022-11-24T01:13:27.714Z,9.98
2022-11-24T01:17:09.659Z,9.45
2022-11-24T01:20:51.582Z,8.68
2022-11-24T01:24:33.913Z,9.23
2022-11-24T01:28:15.918Z,13.35
2022-11-24T01:31:58.036Z,9.68
2022-11-24T01:35:40.029Z,8.87
2022-11-24T01:39:21.994Z,14.10
2022-11-24T01:43:19.741Z,16.42
2022-11-24T01:47:32.102Z,12.53
2022-11-24T01:51:26.832Z,11.80
2022-11-24T01:55:14.057Z,12.60
2022-11-24T01:58:59.186Z,16.55
2022-11-24T02:02:43.301Z,20.97
2022-11-24T02:06:31.554Z,12.57
2022-11-24T02:10:15.572Z,13.07
2022-11-24T02:13:57.875Z,17.43
2022-11-24T02:17:39.810Z,14.40
2022-11-24T02:21:21.898Z,12.30
2022-11-24T02:25:25.922Z,13.03
2022-11-24T02:29:08.679Z,20.83
2022-11-24T02:32:52.157Z,16.75
2022-11-24T02:36:34.105Z,17.67
2022-11-24T02:40:20.835Z,13.57
2022-11-24T02:44:02.929Z,18.40
2022-11-24T02:47:46.124Z,14.05
2022-11-24T02:51:29.625Z,10.10
2022-11-24T02:55:11.646Z,16.55
2022-11-24T02:58:53.575Z,12.63
2022-11-24T03:02:35.542Z,17.03
2022-11-24T03:06:17.447Z,15.43
2022-11-24T03:09:59.375Z,17.52
2022-11-24T03:13:41.281Z,15.18
2022-11-24T03:17:23.231Z,20.83
2022-11-24T03:21:05.318Z,15.68
2022-11-24T03:24:47.300Z,18.23
2022-11-24T03:28:29.352Z,14.33
2022-11-24T03:32:11.277Z,19.60
2022-11-24T03:35:53.193Z,14.85
2022-11-24T03:39:35.137Z,17.63
2022-11-24T03:43:17.164Z,13.75
2022-11-24T03:46:59.082Z,10.23
2022-11-24T03:50:41.145Z,14.38
2022-11-24T03:54:23.405Z,17.40
2022-11-24T03:58:05.312Z,22.23
2022-11-24T04:01:47.397Z,13.02
2022-11-24T04:05:29.397Z,10.53
2022-11-24T04:09:11.361Z,13.30
2022-11-24T04:12:53.301Z,17.45
2022-11-24T04:16:35.282Z,19.40
2022-11-24T04:20:17.697Z,19.55
2022-11-24T04:23:59.688Z,18.98
2022-11-24T04:27:41.594Z,16.08
2022-11-24T04:31:23.645Z,15.77
2022-11-24T04:35:05.961Z,15.75
2022-11-24T04:39:25.672Z,20.88
2022-11-24T04:42:56.958Z,19.00
2022-11-24T04:46:39.275Z,16.45
2022-11-24T04:50:21.270Z,13.07
2022-11-24T04:54:03.235Z,13.53
2022-11-24T04:57:45.142Z,21.85
2022-11-24T05:01:27.683Z,19.30
2022-11-24T05:05:09.817Z,13.75
2022-11-24T05:08:52.967Z,16.00
2022-11-24T05:12:34.899Z,15.18
2022-11-24T05:16:16.815Z,17.60
2022-11-24T05:19:59.189Z,21.63
2022-11-24T05:23:41.124Z,21.67
2022-11-24T05:27:23.554Z,15.88
2022-11-24T05:31:05.560Z,13.80
2022-11-24T05:34:48.056Z,17.08
2022-11-24T05:38:30.379Z,15.05
2022-11-24T05:42:31.301Z,18.63
2022-11-24T05:46:13.267Z,18.63
2022-11-24T05:49:55.317Z,14.05
2022-11-24T05:53:37.393Z,20.58
2022-11-24T05:57:19.485Z,14.90
2022-11-24T06:01:01.380Z,13.80
2022-11-24T06:04:43.255Z,10.48
2022-11-24T06:08:30.699Z,14.27
2022-11-24T06:12:13.538Z,13.02
2022-11-24T06:15:55.464Z,14.43
2022-11-24T06:19:41.899Z,15.80
2022-11-24T06:23:24.183Z,15.07
2022-11-24T06:27:06.095Z,10.82
2022-11-24T06:30:48.380Z,16.67
2022-11-24T06:34:30.293Z,16.57
2022-11-24T06:38:12.490Z,17.90
2022-11-24T06:41:54.498Z,13.77
2022-11-24T06:45:36.420Z,13.30
2022-11-24T06:49:18.553Z,20.50
2022-11-24T06:53:01.562Z,11.25
2022-11-24T06:56:43.527Z,17.85
2022-11-24T07:00:25.671Z,20.53
2022-11-24T07:04:07.564Z,18.48
2022-11-24T07:07:50.965Z,20.75
2022-11-24T07:11:33.072Z,18.67
2022-11-24T07:15:15.155Z,18.75
2022-11-24T07:18:57.638Z,19.25
2022-11-24T07:22:39.741Z,19.27
2022-11-24T07:26:22.432Z,24.05
2022-11-24T07:30:04.843Z,23.10
2022-11-24T07:33:52.007Z,13.07
2022-11-24T07:37:33.867Z,25.73
2022-11-24T07:41:17.517Z,19.70
2022-11-24T07:44:59.450Z,22.25
2022-11-24T07:48:41.359Z,21.10
2022-11-24T07:52:26.664Z,23.17
2022-11-24T07:56:12.663Z,26.35
2022-11-24T07:59:54.841Z,22.75
2022-11-24T08:03:37.032Z,28.23
2022-11-24T08:07:19.609Z,20.02
2022-11-24T08:11:09.552Z,21.92
2022-11-24T08:14:51.500Z,26.57
2022-11-24T08:18:34.821Z,28.02
2022-11-24T08:22:17.062Z,25.98
2022-11-24T08:26:05.037Z,33.70
2022-11-24T08:29:47.289Z,30.15
2022-11-24T08:33:29.424Z,30.27
2022-11-24T08:37:11.552Z,24.55
2022-11-24T08:40:53.503Z,32.00
2022-11-24T08:44:35.692Z,28.40
2022-11-24T08:48:17.905Z,33.80
2022-11-24T08:51:59.808Z,33.13
2022-11-24T08:55:41.763Z,31.80
2022-11-24T08:59:23.767Z,28.67
2022-11-24T09:03:05.629Z,34.53
2022-11-24T09:06:47.588Z,30.77
2022-11-24T09:10:29.486Z,34.67
2022-11-24T09:14:11.518Z,24.05
2022-11-24T09:17:53.576Z,38.42
2022-11-24T09:21:39.030Z,28.92
2022-11-24T09:25:21.146Z,26.85
2022-11-24T09:29:06.433Z,34.80
2022-11-24T09:32:48.303Z,25.90
2022-11-24T09:36:31.984Z,22.33
2022-11-24T09:40:14.734Z,25.63
2022-11-24T09:44:14.665Z,29.52
2022-11-24T09:48:22.234Z,29.85
2022-11-24T09:52:10.003Z,26.90
2022-11-24T09:56:23.763Z,33.03
2022-11-24T10:00:14.451Z,27.05
2022-11-24T10:04:02.563Z,26.33
2022-11-24T10:08:05.498Z,26.23
2022-11-24T10:12:12.027Z,33.38
2022-11-24T10:16:48.962Z,24.30
2022-11-24T10:20:31.397Z,28.10
2022-11-24T10:25:09.625Z,23.50
2022-11-24T10:29:28.782Z,32.20
2022-11-24T10:33:54.219Z,17.88
2022-11-24T10:38:13.735Z,28.67
2022-11-24T10:42:11.339Z,16.05
2022-11-24T10:46:15.194Z,24.65
2022-11-24T10:50:05.551Z,18.60
2022-11-24T10:57:52.293Z,29.85
2022-11-24T11:02:24.040Z,22.70
2022-11-24T11:06:34.959Z,22.08
2022-11-24T11:14:35.745Z,17.83
2022-11-24T11:18:19.791Z,27.35
2022-11-24T11:22:25.352Z,19.17
2022-11-24T11:34:47.883Z,21.95
2022-11-24T11:39:15.030Z,26.08
2022-11-24T11:48:19.139Z,21.67
2022-11-24T11:52:47.400Z,21.98
2022-11-24T11:56:37.577Z,25.43
2022-11-24T12:09:19.408Z,14.65
2022-11-24T12:13:18.384Z,18.25
2022-11-24T12:17:32.475Z,24.38
2022-11-24T12:30:18.112Z,18.05
2022-11-24T12:38:19.508Z,17.70
2022-11-24T12:42:36.640Z,18.60
2022-11-24T12:47:07.856Z,17.87
2022-11-24T12:51:24.283Z,16.60
2022-11-24T13:00:38.217Z,19.95
2022-11-24T13:08:31.264Z,18.00
2022-11-24T13:13:02.272Z,15.38
2022-11-24T13:21:50.241Z,13.73
2022-11-24T13:25:34.696Z,18.30
2022-11-24T13:33:27.560Z,21.52
2022-11-24T13:37:34.739Z,16.60
2022-11-24T13:45:46.866Z,15.70
2022-11-24T13:50:15.263Z,17.65
2022-11-24T13:54:21.111Z,22.95
2022-11-24T13:58:48.585Z,15.70
2022-11-24T14:02:31.240Z,15.88
2022-11-24T14:10:41.621Z,12.07
2022-11-24T14:14:41.123Z,11.13
2022-11-24T14:18:26.303Z,8.82
2022-11-24T14:22:38.836Z,11.00
2022-11-24T14:30:39.977Z,8.52
2022-11-24T14:38:40.202Z,12.00
2022-11-24T14:55:30.402Z,15.55
2022-11-24T15:03:18.857Z,14.63
2022-11-24T15:11:22.554Z,13.23
2022-11-24T15:20:09.618Z,9.50
2022-11-24T15:28:04.416Z,7.55
2022-11-24T15:32:18.654Z,8.97
2022-11-24T15:36:01.162Z,14.07
2022-11-24T15:44:01.326Z,16.73
2022-11-24T15:48:04.457Z,13.30
2022-11-24T15:51:48.193Z,12.60
2022-11-24T15:56:16.825Z,16.15
2022-11-24T16:04:02.827Z,12.73
2022-11-24T16:07:45.723Z,15.13
2022-11-24T16:11:45.277Z,13.80
2022-11-24T16:15:28.771Z,16.77
2022-11-24T16:19:11.277Z,16.63
2022-11-24T16:22:54.518Z,19.77
2022-11-24T16:26:36.472Z,12.90
2022-11-24T16:30:18.759Z,22.45
2022-11-24T16:34:00.743Z,20.60
2022-11-24T16:37:42.711Z,17.87
2022-11-24T16:41:24.714Z,20.80
2022-11-24T16:45:07.667Z,22.27
2022-11-24T16:48:52.586Z,17.40
2022-11-24T16:52:34.718Z,20.30
2022-11-24T16:56:17.605Z,15.85
2022-11-24T16:59:59.632Z,21.77
2022-11-24T17:03:41.829Z,23.48
2022-11-24T17:07:23.796Z,19.80
2022-11-24T17:11:17.165Z,17.42
2022-11-24T17:15:30.417Z,22.27
2022-11-24T17:19:01.188Z,19.90
2022-11-24T17:22:43.148Z,21.27
2022-11-24T17:26:25.847Z,16.73
2022-11-24T17:30:08.460Z,17.75
2022-11-24T17:33:53.087Z,16.33
2022-11-24T17:37:37.149Z,24.98
2022-11-24T17:41:20.112Z,20.92
2022-11-24T17:45:02.131Z,17.63
2022-11-24T17:48:44.093Z,15.77
2022-11-24T17:52:26.360Z,28.13
2022-11-24T17:56:12.081Z,20.02
2022-11-24T17:59:54.155Z,22.13
2022-11-24T18:03:36.282Z,19.87
2022-11-24T18:07:18.301Z,22.73
2022-11-24T18:11:08.227Z,24.73
2022-11-24T18:14:50.164Z,15.23
2022-11-24T18:18:35.393Z,18.00
2022-11-24T18:22:36.782Z,15.68
2022-11-24T18:26:22.975Z,20.20
2022-11-24T18:30:06.195Z,17.77
2022-11-24T18:33:48.201Z,19.30
2022-11-24T18:37:38.512Z,18.92
2022-11-24T18:42:05.413Z,19.53
2022-11-24T18:45:47.696Z,16.65
2022-11-24T18:54:11.871Z,18.55
2022-11-24T18:57:57.690Z,16.13
2022-11-24T19:01:39.718Z,16.30
2022-11-24T19:05:21.742Z,20.25
2022-11-24T19:09:11.120Z,18.70
2022-11-24T19:13:02.198Z,19.58
2022-11-24T19:16:44.781Z,19.42
2022-11-24T19:20:27.084Z,14.00
2022-11-24T19:24:13.377Z,16.95
2022-11-24T19:27:55.295Z,19.20
2022-11-24T19:31:40.699Z,19.05
2022-11-24T19:35:22.788Z,18.80
2022-11-24T19:39:05.369Z,16.20
2022-11-24T19:42:47.395Z,20.88
2022-11-24T19:46:30.394Z,17.63
2022-11-24T19:50:12.550Z,22.42
2022-11-24T19:53:54.667Z,20.08
2022-11-24T19:57:36.577Z,17.00
2022-11-24T20:01:21.398Z,18.27
2022-11-24T20:05:03.370Z,15.98
2022-11-24T20:08:45.380Z,10.73
2022-11-24T20:12:27.283Z,11.23
2022-11-24T20:16:12.733Z,23.10
2022-11-24T20:19:54.699Z,18.63
2022-11-24T20:23:36.850Z,17.83
2022-11-24T20:27:18.732Z,20.65
2022-11-24T20:31:06.400Z,16.08
2022-11-24T20:34:48.332Z,21.93
2022-11-24T20:38:30.986Z,20.83
2022-11-24T20:42:12.874Z,17.48
2022-11-24T20:45:54.915Z,24.77
2022-11-24T20:49:36.802Z,14.65
2022-11-24T20:53:18.868Z,20.67
2022-11-24T20:57:00.971Z,21.08
2022-11-24T21:00:42.930Z,15.63
2022-11-24T21:04:27.258Z,19.02
2022-11-24T21:08:09.708Z,18.08
2022-11-24T21:11:51.624Z,19.87
2022-11-24T21:15:33.678Z,15.65
2022-11-24T21:19:18.771Z,18.42
2022-11-24T21:23:00.846Z,20.02
2022-11-24T21:26:44.036Z,13.43
2022-11-24T21:30:26.111Z,18.25
2022-11-24T21:34:08.892Z,16.20
2022-11-24T21:37:50.862Z,25.63
2022-11-24T21:41:34.039Z,14.15
2022-11-24T21:45:16.064Z,25.27
2022-11-24T21:48:59.050Z,20.00
2022-11-24T21:52:40.998Z,22.52
2022-11-24T21:56:23.957Z,16.55
2022-11-24T22:00:07.029Z,18.95
2022-11-24T22:03:49.475Z,14.52
2022-11-24T22:07:32.641Z,20.80
2022-11-24T22:11:18.273Z,21.23
2022-11-24T22:15:00.467Z,14.20
2022-11-24T22:18:43.719Z,22.95
2022-11-24T22:22:25.797Z,18.38
2022-11-24T22:26:15.809Z,18.13
2022-11-24T22:29:57.818Z,17.08
2022-11-24T22:33:40.051Z,24.45
2022-11-24T22:37:21.967Z,24.70
2022-11-24T22:41:12.589Z,23.35
2022-11-24T22:44:54.526Z,22.00
2022-11-24T22:48:36.725Z,20.23
2022-11-24T22:52:18.672Z,22.50
2022-11-24T22:56:09.616Z,14.60
2022-11-24T22:59:52.077Z,16.15
2022-11-24T23:03:35.292Z,18.10
2022-11-24T23:07:17.204Z,21.42
2022-11-24T23:11:01.203Z,20.33
2022-11-24T23:14:43.135Z,21.92
2022-11-24T23:18:25.026Z,19.13
2022-11-24T23:22:07.418Z,27.73
2022-11-24T23:25:49.419Z,22.58
2022-11-24T23:29:31.298Z,15.33
2022-11-24T23:33:13.186Z,17.65
2022-11-24T23:36:55.106Z,16.98
2022-11-24T23:40:37.089Z,18.53
2022-11-24T23:44:19.197Z,16.40
2022-11-24T23:48:01.812Z,19.08
2022-11-24T23:51:43.782Z,15.40
2022-11-24T23:55:25.647Z,20.50
2022-11-24T23:59:11.273Z,24.42
